createdAt,value
2023-03-26T00:02:06.007Z,86.80
2023-03-26T00:04:34.532Z,84.90
2023-03-26T00:07:03.056Z,82.77
2023-03-26T00:09:31.294Z,82.17
2023-03-26T00:12:00.815Z,85.67
2023-03-26T00:14:29.988Z,85.47
2023-03-26T00:16:58.194Z,85.03
2023-03-26T00:19:27.835Z,88.43
2023-03-26T00:21:57.676Z,86.47
2023-03-26T00:24:29.959Z,87.73
2023-03-26T00:26:58.096Z,88.80
2023-03-26T00:29:27.887Z,91.13
2023-03-26T00:31:56.059Z,90.07
2023-03-26T00:34:24.806Z,73.23
2023-03-26T00:36:54.883Z,73.40
2023-03-26T00:39:24.096Z,91.90
2023-03-26T00:41:54.429Z,88.70
2023-03-26T00:44:23.379Z,90.80
2023-03-26T00:46:52.773Z,86.37
2023-03-26T00:49:20.830Z,87.93
2023-03-26T00:51:48.876Z,86.87
2023-03-26T00:54:19.872Z,83.67
2023-03-26T00:56:47.962Z,89.40
2023-03-26T00:59:17.049Z,80.40
2023-03-26T01:01:45.264Z,90.70
2023-03-26T01:04:30.600Z,82.23
2023-03-26T01:07:01.749Z,84.17
2023-03-26T01:09:35.587Z,85.43
2023-03-26T01:12:06.728Z,87.90
2023-03-26T01:14:34.952Z,81.53
2023-03-26T01:17:06.060Z,87.03
2023-03-26T01:19:42.519Z,84.70
2023-03-26T01:22:14.748Z,80.77
2023-03-26T01:24:46.139Z,84.47
2023-03-26T01:27:26.702Z,83.03
2023-03-26T01:29:57.421Z,92.77
2023-03-26T01:32:57.969Z,81.10
2023-03-26T01:35:35.619Z,84.77
2023-03-26T01:38:18.539Z,81.53
2023-03-26T01:40:53.110Z,82.80
2023-03-26T01:43:29.508Z,89.00
2023-03-26T01:45:59.477Z,84.30
2023-03-26T01:48:32.505Z,89.30
2023-03-26T01:51:00.567Z,90.43
2023-03-26T01:53:28.863Z,87.20
2023-03-26T01:56:07.408Z,87.27
2023-03-26T01:58:42.134Z,82.90
2023-03-26T02:01:24.488Z,87.37
2023-03-26T02:03:59.520Z,91.07
2023-03-26T02:06:34.351Z,85.97
2023-03-26T02:09:05.393Z,87.93
2023-03-26T02:11:36.295Z,94.27
2023-03-26T02:14:06.313Z,83.57
2023-03-26T02:16:35.056Z,83.73
2023-03-26T02:19:04.846Z,84.53
2023-03-26T02:21:34.187Z,96.60
2023-03-26T02:24:04.113Z,84.33
2023-03-26T02:26:37.774Z,87.40
2023-03-26T02:29:13.422Z,83.63
2023-03-26T02:31:44.026Z,87.23
2023-03-26T02:34:12.181Z,81.07
2023-03-26T02:36:46.929Z,80.27
2023-03-26T02:39:15.299Z,84.03
2023-03-26T02:41:51.706Z,86.10
2023-03-26T02:44:19.853Z,90.60
2023-03-26T02:46:59.696Z,88.03
2023-03-26T02:49:48.270Z,91.00
2023-03-26T02:52:33.706Z,89.53
2023-03-26T02:55:01.784Z,88.47
2023-03-26T02:57:31.377Z,88.70
2023-03-26T03:00:17.506Z,87.47
2023-03-26T03:03:06.688Z,89.80
2023-03-26T03:05:35.241Z,88.30
2023-03-26T03:08:22.688Z,88.87
2023-03-26T03:11:09.122Z,86.77
2023-03-26T03:13:53.324Z,91.27
2023-03-26T03:16:26.832Z,84.83
2023-03-26T03:18:58.005Z,86.80
2023-03-26T03:21:34.503Z,90.23
2023-03-26T03:24:02.637Z,90.33
2023-03-26T03:26:36.495Z,84.50
2023-03-26T03:29:34.769Z,86.60
2023-03-26T03:32:31.960Z,92.37
2023-03-26T03:35:04.215Z,87.23
2023-03-26T03:37:33.075Z,85.00
2023-03-26T03:40:01.673Z,87.23
2023-03-26T03:42:32.932Z,88.47
2023-03-26T03:45:07.133Z,91.50
2023-03-26T03:47:57.705Z,89.37
2023-03-26T03:50:35.643Z,86.03
2023-03-26T03:53:26.058Z,90.77
2023-03-26T03:55:56.881Z,91.40
2023-03-26T03:58:34.632Z,87.27
2023-03-26T04:01:13.475Z,84.97
2023-03-26T04:03:57.704Z,89.67
2023-03-26T04:06:33.863Z,88.63
2023-03-26T04:09:01.936Z,91.87
2023-03-26T04:11:30.916Z,87.77
2023-03-26T04:14:19.307Z,83.67
2023-03-26T04:17:13.519Z,83.57
2023-03-26T04:19:42.030Z,90.97
2023-03-26T04:22:12.014Z,88.63
2023-03-26T04:24:54.448Z,90.80
2023-03-26T04:27:36.804Z,87.43
2023-03-26T04:30:45.002Z,80.63
2023-03-26T04:33:29.510Z,90.97
2023-03-26T04:36:02.924Z,90.73
2023-03-26T04:38:41.099Z,86.97
2023-03-26T04:41:13.178Z,86.63
2023-03-26T04:43:51.434Z,86.90
2023-03-26T04:46:27.654Z,88.33
2023-03-26T04:49:10.924Z,81.43
2023-03-26T04:51:41.907Z,83.97
2023-03-26T04:54:24.813Z,91.83
2023-03-26T04:57:02.961Z,85.07
2023-03-26T04:59:54.124Z,84.80
2023-03-26T05:02:22.216Z,88.40
2023-03-26T05:04:57.228Z,90.20
2023-03-26T05:07:29.316Z,87.73
2023-03-26T05:09:59.021Z,86.40
2023-03-26T05:12:51.348Z,87.10
2023-03-26T05:15:24.449Z,89.53
2023-03-26T05:17:52.528Z,81.90
2023-03-26T05:20:32.483Z,89.60
2023-03-26T05:23:00.577Z,82.22
2023-03-26T05:25:34.846Z,85.90
2023-03-26T05:28:05.324Z,76.40
2023-03-26T05:30:49.060Z,88.27
2023-03-26T05:33:17.843Z,81.10
2023-03-26T05:36:02.665Z,78.93
2023-03-26T05:38:33.013Z,88.35
2023-03-26T05:41:03.576Z,80.03
2023-03-26T05:43:32.713Z,90.03
2023-03-26T05:46:12.977Z,75.45
2023-03-26T05:48:41.090Z,77.80
2023-03-26T05:51:12.328Z,78.37
2023-03-26T05:53:44.802Z,79.87
2023-03-26T05:56:31.409Z,87.20
2023-03-26T05:59:17.760Z,84.57
2023-03-26T06:01:45.827Z,78.60
2023-03-26T06:04:17.207Z,86.07
2023-03-26T06:07:11.021Z,80.32
2023-03-26T06:09:41.149Z,83.53
2023-03-26T06:12:10.699Z,82.68
2023-03-26T06:14:42.750Z,87.10
2023-03-26T06:17:40.187Z,84.68
2023-03-26T06:20:17.938Z,82.10
2023-03-26T06:22:49.912Z,82.78
2023-03-26T06:25:22.968Z,88.30
2023-03-26T06:28:06.926Z,81.53
2023-03-26T06:30:37.586Z,82.87
2023-03-26T06:33:13.875Z,81.00
2023-03-26T06:35:48.934Z,84.18
2023-03-26T06:38:19.596Z,83.38
2023-03-26T06:40:47.874Z,81.78
2023-03-26T06:43:27.745Z,88.17
2023-03-26T06:46:14.658Z,86.97
2023-03-26T06:49:01.520Z,88.53
2023-03-26T06:52:04.878Z,88.70
2023-03-26T06:54:45.012Z,86.40
2023-03-26T06:57:31.424Z,86.13
2023-03-26T07:00:19.064Z,89.57
2023-03-26T07:03:05.630Z,84.90
2023-03-26T07:05:52.592Z,84.97
2023-03-26T07:08:43.908Z,82.73
2023-03-26T07:11:31.609Z,90.57
2023-03-26T07:14:19.999Z,90.03
2023-03-26T07:16:59.509Z,80.65
2023-03-26T07:19:38.645Z,86.97
2023-03-26T07:22:07.502Z,82.50
2023-03-26T07:25:02.133Z,83.73
2023-03-26T07:28:07.198Z,80.57
2023-03-26T07:31:27.225Z,84.53
2023-03-26T07:34:36.014Z,92.20
2023-03-26T17:54:48.674Z,59.30
2023-03-26T17:57:22.387Z,75.00
2023-03-26T18:02:47.226Z,75.88
2023-03-26T18:05:17.565Z,66.15
2023-03-26T18:08:16.928Z,70.03
2023-03-26T18:11:07.873Z,69.53
2023-03-26T18:14:23.573Z,66.00
2023-03-26T18:16:54.282Z,71.43
2023-03-26T18:19:24.976Z,71.82
2023-03-26T18:21:54.648Z,77.38
2023-03-26T18:24:26.685Z,70.75
2023-03-26T18:26:58.439Z,74.22
2023-03-26T18:29:28.496Z,80.65
2023-03-26T18:32:00.440Z,76.00
2023-03-26T18:34:32.252Z,71.30
2023-03-26T18:37:14.681Z,72.18
2023-03-26T18:39:42.987Z,66.93
2023-03-26T18:42:22.366Z,63.97
2023-03-26T18:44:52.843Z,71.03
2023-03-26T18:47:21.677Z,75.82
2023-03-26T18:49:56.362Z,70.88
2023-03-26T18:52:24.677Z,69.65
2023-03-26T18:54:55.188Z,70.28
2023-03-26T18:57:25.954Z,68.10
2023-03-26T18:59:56.073Z,67.38
2023-03-26T19:02:26.240Z,70.30
2023-03-26T19:04:56.775Z,79.32
2023-03-26T19:07:27.223Z,64.53
2023-03-26T19:09:56.716Z,74.93
2023-03-26T19:12:29.940Z,72.15
2023-03-26T19:15:03.625Z,69.75
2023-03-26T19:17:35.354Z,69.13
2023-03-26T19:20:09.707Z,74.55
2023-03-26T19:22:41.395Z,72.60
2023-03-26T19:25:18.913Z,69.97
2023-03-26T19:27:46.990Z,70.80
2023-03-26T19:30:28.360Z,67.82
2023-03-26T19:33:13.135Z,69.53
2023-03-26T19:35:45.411Z,64.15
2023-03-26T19:38:25.552Z,64.78
2023-03-26T19:40:55.608Z,71.70
2023-03-26T19:43:24.814Z,67.88
2023-03-26T19:46:00.194Z,67.18
2023-03-26T19:48:45.810Z,69.47
2023-03-26T19:51:21.265Z,62.55
2023-03-26T19:53:55.065Z,71.43
2023-03-26T19:56:23.938Z,71.53
2023-03-26T19:58:52.488Z,85.72
2023-03-26T20:01:23.718Z,71.22
2023-03-26T20:03:53.863Z,67.30
2023-03-26T20:06:31.050Z,68.35
2023-03-26T20:09:06.519Z,75.75
2023-03-26T20:11:37.902Z,71.63
2023-03-26T20:14:13.013Z,72.05
2023-03-26T20:16:42.909Z,68.40
2023-03-26T20:19:14.209Z,68.22
2023-03-26T20:21:44.954Z,76.93
2023-03-26T20:24:15.026Z,73.47
2023-03-26T20:26:43.690Z,66.82
2023-03-26T20:29:12.937Z,73.50
2023-03-26T20:31:42.130Z,85.60
2023-03-26T20:34:17.180Z,104.75
2023-03-26T20:36:46.925Z,68.38
2023-03-26T20:39:15.424Z,63.53
2023-03-26T20:41:46.562Z,69.00
2023-03-26T20:44:17.934Z,66.43
2023-03-26T20:46:48.267Z,81.50
2023-03-26T20:49:17.848Z,69.13
2023-03-26T20:51:48.889Z,65.97
2023-03-26T20:54:19.017Z,63.97
2023-03-26T20:56:48.025Z,70.20
2023-03-26T20:59:22.346Z,72.07
2023-03-26T21:01:51.851Z,75.40
2023-03-26T21:04:20.376Z,69.47
2023-03-26T21:06:50.843Z,69.00
2023-03-26T21:09:23.823Z,65.25
2023-03-26T21:12:01.524Z,73.05
2023-03-26T21:14:34.296Z,66.65
2023-03-26T21:17:02.755Z,71.53
2023-03-26T21:19:31.344Z,64.90
2023-03-26T21:22:13.703Z,74.53
2023-03-26T21:24:52.285Z,63.50
2023-03-26T21:27:27.139Z,69.93
2023-03-26T21:29:56.227Z,65.85
2023-03-26T21:32:25.232Z,68.93
2023-03-26T21:37:27.119Z,71.60
2023-03-26T21:39:55.822Z,65.40
2023-03-26T21:42:26.982Z,77.22
2023-03-26T21:44:56.073Z,68.13
2023-03-26T21:47:24.523Z,68.93
2023-03-26T21:49:54.667Z,68.35
2023-03-26T21:52:23.940Z,71.13
2023-03-26T21:54:54.339Z,69.57
2023-03-26T21:57:44.650Z,69.40
2023-03-26T22:00:16.294Z,66.95
2023-03-26T22:02:54.575Z,68.30
2023-03-26T22:05:32.228Z,68.88
2023-03-26T22:08:04.115Z,68.72
2023-03-26T22:10:33.834Z,67.72
2023-03-26T22:13:02.095Z,70.78
2023-03-26T22:15:31.054Z,73.78
2023-03-26T22:18:02.480Z,71.28
2023-03-26T22:20:30.860Z,65.65
2023-03-26T22:23:00.941Z,69.88
2023-03-26T22:25:29.268Z,68.03
2023-03-26T22:27:59.155Z,71.07
2023-03-26T22:30:27.463Z,67.78
2023-03-26T22:32:55.855Z,69.20
2023-03-26T22:35:24.258Z,62.78
2023-03-26T22:37:52.659Z,71.00
2023-03-26T22:40:29.673Z,67.18
2023-03-26T22:42:59.319Z,63.20
2023-03-26T22:45:27.780Z,67.80
2023-03-26T22:48:03.690Z,67.32
2023-03-26T22:50:32.542Z,63.80
2023-03-26T22:53:01.151Z,67.93
2023-03-26T22:55:30.007Z,62.20
2023-03-26T22:57:59.905Z,69.30
2023-03-26T23:00:28.294Z,66.50
2023-03-26T23:03:00.208Z,65.78
2023-03-26T23:05:29.409Z,70.93
2023-03-26T23:07:58.280Z,72.00
2023-03-26T23:10:26.608Z,63.50
2023-03-26T23:12:54.923Z,68.90
2023-03-26T23:15:25.939Z,68.65
2023-03-26T23:17:55.118Z,61.20
2023-03-26T23:20:23.626Z,67.38
2023-03-26T23:22:52.531Z,65.78
2023-03-26T23:25:21.287Z,71.72
2023-03-26T23:27:50.652Z,68.53
2023-03-26T23:30:19.417Z,67.22
2023-03-26T23:32:49.224Z,68.78
2023-03-26T23:35:17.657Z,65.30
2023-03-26T23:37:45.907Z,61.63
2023-03-26T23:40:14.655Z,59.42
2023-03-26T23:42:42.969Z,69.95
2023-03-26T23:45:13.068Z,65.00
2023-03-26T23:47:42.591Z,61.05
2023-03-26T23:50:13.115Z,60.83
2023-03-26T23:52:41.479Z,59.97
2023-03-26T23:55:10.316Z,60.75
2023-03-26T23:57:38.679Z,63.67
